Time;durP1;ratioP1;P1;durP2;ratioP2;P2;SDS_P1;SDS_P2;PMS_P1;PMS_P2;Temp;Humidity;BMP_temperature;BMP_pressure;BME280_temperature;BME280_humidity;BME280_pressure;Samples;Min_cycle;Max_cycle;Signal;HPM_P1;HPM_P2
2021/05/23 00:00:44;;;;;;;7.55;3.75;;;8.90;84.70;;;;;;5045730;28;20119;-61
2021/05/23 00:03:13;;;;;;;10.98;3.95;;;8.80;85.90;;;;;;5052407;28;20033;-60
2021/05/23 00:05:40;;;;;;;6.18;2.95;;;8.80;86.10;;;;;;5050102;28;20119;-61
2021/05/23 00:08:10;;;;;;;10.00;3.78;;;8.90;85.10;;;;;;5048174;28;20041;-61
2021/05/23 00:10:46;;;;;;;14.57;4.38;;;8.80;85.70;;;;;;5046010;28;20800;-61
2021/05/23 00:13:14;;;;;;;7.05;3.17;;;9.90;86.20;;;;;;5046268;28;20048;-61
2021/05/23 00:15:48;;;;;;;7.70;3.50;;;8.70;85.60;;;;;;5045889;28;20061;-61
2021/05/23 00:18:15;;;;;;;8.10;3.33;;;8.70;85.50;;;;;;5058712;28;20496;-61
2021/05/23 00:20:41;;;;;;;10.13;3.80;;;8.80;85.40;;;;;;5081570;28;20052;-62
2021/05/23 00:23:09;;;;;;;10.95;4.05;;;8.80;85.20;;;;;;5057206;28;20494;-62
2021/05/23 00:25:37;;;;;;;9.33;4.03;;;8.80;85.10;;;;;;5054489;28;20055;-62
2021/05/23 00:28:03;;;;;;;11.13;3.75;;;8.40;86.00;;;;;;5042245;28;20656;-62
2021/05/23 00:30:29;;;;;;;6.00;3.75;;;;;;;;;;5047790;28;20037;-59
2021/05/23 00:32:58;;;;;;;9.48;3.63;;;9.40;86.90;;;;;;5047392;28;20037;-62
2021/05/23 00:35:24;;;;;;;17.50;4.43;;;8.00;86.40;;;;;;5045427;28;20060;-62
2021/05/23 00:37:53;;;;;;;11.05;3.97;;;8.20;86.90;;;;;;5045362;28;20067;-62
2021/05/23 00:40:19;;;;;;;12.23;4.00;;;8.40;87.00;;;;;;5050116;28;20033;-62
2021/05/23 00:42:45;;;;;;;9.70;3.40;;;;;;;;;;5047729;28;20033;-62
2021/05/23 00:45:15;;;;;;;13.88;4.20;;;8.10;87.20;;;;;;5048018;28;20055;-60
2021/05/23 00:47:42;;;;;;;8.95;4.13;;;7.90;86.90;;;;;;5047168;28;20060;-60
2021/05/23 00:50:10;;;;;;;7.80;4.55;;;8.50;87.50;;;;;;5047723;28;20091;-60
2021/05/23 00:52:37;;;;;;;13.07;3.83;;;;;;;;;;5050043;28;20060;-60
2021/05/23 00:55:04;;;;;;;9.73;4.10;;;8.30;87.40;;;;;;5046493;28;20047;-61
2021/05/23 00:57:30;;;;;;;9.43;3.95;;;8.30;87.80;;;;;;5055251;28;20387;-60
2021/05/23 00:59:56;;;;;;;10.77;4.38;;;7.90;88.00;;;;;;5039705;28;20045;-60
2021/05/23 01:02:42;;;;;;;14.57;5.40;;;7.80;87.30;;;;;;5044416;28;21677;-60
2021/05/23 01:05:10;;;;;;;9.85;4.18;;;7.80;88.30;;;;;;5052160;28;20110;-60
2021/05/23 01:07:38;;;;;;;15.45;4.72;;;8.90;89.30;;;;;;5046132;28;20033;-61
2021/05/23 01:10:08;;;;;;;13.68;4.53;;;7.70;89.50;;;;;;5047478;28;20055;-60
2021/05/23 01:12:52;;;;;;;;;;;7.70;88.50;;;;;;5046053;28;20029;-61
2021/05/23 01:15:38;;;;;;;12.95;4.57;;;7.50;88.70;;;;;;5038775;28;19982;-61
2021/05/23 01:18:12;;;;;;;10.75;4.10;;;6.90;89.50;;;;;;5049247;28;20029;-62
2021/05/23 01:20:53;;;;;;;10.70;4.18;;;7.40;89.70;;;;;;5047313;28;20055;-62
2021/05/23 01:23:19;;;;;;;12.27;4.18;;;7.00;89.20;;;;;;5048493;28;20048;-62
2021/05/23 01:25:50;;;;;;;9.60;4.13;;;7.70;89.70;;;;;;5053120;28;20063;-62
2021/05/23 01:28:18;;;;;;;10.25;3.72;;;7.20;89.60;;;;;;5047663;28;20040;-62
2021/05/23 01:30:48;;;;;;;13.23;4.00;;;7.20;90.00;;;;;;5048531;28;20528;-62
2021/05/23 01:33:17;;;;;;;11.45;5.40;;;7.00;90.40;;;;;;5040138;28;20087;-62
2021/05/23 01:35:47;;;;;;;16.65;4.28;;;7.30;88.40;;;;;;5054898;28;20092;-63
2021/05/23 01:38:16;;;;;;;13.07;3.80;;;6.70;90.10;;;;;;5047671;28;20107;-61
2021/05/23 01:40:43;;;;;;;;;;;7.30;89.50;;;;;;5049889;28;20082;-62
2021/05/23 01:43:10;;;;;;;8.90;4.20;;;9.10;90.70;;;;;;5047747;28;20494;-62
2021/05/23 01:45:37;;;;;;;6.88;3.70;;;7.00;90.20;;;;;;5055511;28;20123;-59
2021/05/23 01:48:05;;;;;;;9.05;4.25;;;6.80;90.50;;;;;;5048249;28;20099;-63
2021/05/23 01:50:32;;;;;;;11.40;4.30;;;7.10;90.00;;;;;;5039073;28;20097;-60
2021/05/23 01:53:01;;;;;;;8.80;4.00;;;6.90;90.20;;;;;;5038230;28;20098;-61
2021/05/23 01:55:28;;;;;;;8.82;4.35;;;6.90;89.50;;;;;;5057612;28;20148;-61
2021/05/23 01:57:55;;;;;;;11.00;3.72;;;6.40;90.20;;;;;;5048918;28;20066;-61
2021/05/23 02:00:43;;;;;;;11.75;4.43;;;6.60;90.40;;;;;;5047240;28;20084;-61
2021/05/23 02:03:11;;;;;;;12.45;3.90;;;6.70;90.60;;;;;;5056861;28;20125;-61
2021/05/23 02:05:43;;;;;;;10.32;4.03;;;7.30;90.80;;;;;;5064364;28;20119;-61
2021/05/23 02:08:10;;;;;;;13.55;4.82;;;6.80;90.80;;;;;;5053377;28;20107;-60
2021/05/23 02:10:36;;;;;;;13.15;4.22;;;6.70;90.40;;;;;;5054210;28;20173;-61
2021/05/23 02:13:04;;;;;;;12.90;4.57;;;6.00;90.60;;;;;;5048957;28;20175;-61
2021/05/23 02:15:30;;;;;;;7.65;3.83;;;6.70;90.60;;;;;;5054707;28;20143;-61
2021/05/23 02:17:56;;;;;;;8.15;4.25;;;6.30;90.70;;;;;;5051768;28;20099;-61
2021/05/23 02:20:29;;;;;;;13.80;4.38;;;6.50;91.40;;;;;;5054085;28;20167;-61
2021/05/23 02:22:59;;;;;;;11.57;4.32;;;6.80;90.50;;;;;;5048279;28;20108;-61
2021/05/23 02:25:27;;;;;;;12.63;4.00;;;6.60;91.30;;;;;;5062524;28;20093;-61
2021/05/23 02:27:56;;;;;;;7.75;4.18;;;6.40;91.50;;;;;;5035557;28;20086;-61
2021/05/23 02:30:26;;;;;;;14.93;5.25;;;6.20;91.60;;;;;;5048309;28;20549;-61
2021/05/23 02:32:54;;;;;;;14.23;5.47;;;6.60;90.90;;;;;;5042467;28;20086;-61
2021/05/23 02:35:21;;;;;;;13.90;4.55;;;6.60;91.60;;;;;;5048255;28;20073;-61
2021/05/23 02:37:47;;;;;;;11.23;5.00;;;5.90;91.50;;;;;;5046178;28;20090;-61
2021/05/23 02:40:19;;;;;;;12.48;4.65;;;5.90;91.80;;;;;;5048174;28;20097;-61
2021/05/23 02:42:45;;;;;;;19.70;5.43;;;6.70;91.20;;;;;;5047535;28;20594;-61
2021/05/23 02:45:12;;;;;;;12.70;4.80;;;6.80;91.70;;;;;;5046680;28;20539;-62
2021/05/23 02:47:40;;;;;;;12.48;4.93;;;6.70;91.60;;;;;;5048939;28;20139;-60
2021/05/23 02:50:13;;;;;;;12.18;4.88;;;6.80;91.60;;;;;;5048074;28;20033;-61
2021/05/23 02:52:39;;;;;;;11.63;4.85;;;;;;;;;;5048371;28;20130;-62
2021/05/23 02:55:07;;;;;;;8.23;4.53;;;6.90;91.70;;;;;;5074287;28;20119;-62
2021/05/23 02:57:34;;;;;;;11.98;4.85;;;6.80;91.60;;;;;;5055779;28;20166;-62
2021/05/23 03:00:00;;;;;;;9.43;4.70;;;6.50;91.40;;;;;;5050889;28;20092;-62
2021/05/23 03:02:26;;;;;;;8.90;4.80;;;7.60;91.70;;;;;;5048055;28;20084;-62
2021/05/23 03:04:54;;;;;;;13.90;4.80;;;;;;;;;;5052776;28;20178;-62
2021/05/23 03:07:21;;;;;;;10.13;4.75;;;7.40;91.60;;;;;;5049625;28;20088;-61
2021/05/23 03:09:48;;;;;;;11.63;6.05;;;6.80;90.70;;;;;;5050035;28;20114;-61
2021/05/23 03:12:14;;;;;;;13.82;5.88;;;7.00;91.60;;;;;;5050406;28;20099;-61
2021/05/23 03:14:41;;;;;;;16.70;6.18;;;6.10;91.40;;;;;;5056541;28;20089;-61
2021/05/23 03:17:08;;;;;;;12.50;4.88;;;6.40;91.40;;;;;;5056831;28;20079;-61
2021/05/23 03:19:35;;;;;;;10.45;4.90;;;6.60;91.40;;;;;;5051648;28;20192;-60
2021/05/23 03:22:03;;;;;;;10.93;4.63;;;6.50;91.70;;;;;;5050735;28;20104;-61
2021/05/23 03:24:33;;;;;;;15.05;4.80;;;6.70;91.60;;;;;;5051555;28;20081;-61
2021/05/23 03:27:00;;;;;;;12.68;5.72;;;6.40;91.50;;;;;;5067968;28;20172;-61
2021/05/23 03:29:26;;;;;;;13.48;5.47;;;7.20;91.80;;;;;;5050557;28;20155;-61
2021/05/23 03:31:52;;;;;;;12.35;4.85;;;6.40;91.60;;;;;;5051428;28;20152;-62
2021/05/23 03:34:18;;;;;;;12.65;4.90;;;6.90;91.70;;;;;;5057588;28;20683;-62
2021/05/23 03:36:44;;;;;;;12.23;4.93;;;6.20;92.20;;;;;;5054127;28;20074;-62
2021/05/23 03:39:10;;;;;;;16.70;4.95;;;6.30;92.00;;;;;;5052314;28;20152;-62
2021/05/23 03:41:36;;;;;;;10.60;5.00;;;6.00;92.00;;;;;;5050780;28;20065;-62
2021/05/23 03:44:02;;;;;;;13.00;5.30;;;6.30;92.00;;;;;;5052000;28;20065;-62
2021/05/23 03:46:28;;;;;;;17.85;5.63;;;5.50;91.70;;;;;;5054508;28;20098;-62
2021/05/23 03:48:54;;;;;;;14.65;5.35;;;6.30;91.90;;;;;;5051490;28;20077;-62
2021/05/23 03:51:20;;;;;;;10.70;5.10;;;;;;;;;;5036676;28;20062;-62
2021/05/23 03:53:46;;;;;;;12.23;4.65;;;6.40;92.30;;;;;;5060403;28;20051;-61
2021/05/23 03:56:12;;;;;;;11.13;4.97;;;5.80;92.40;;;;;;5081778;28;20532;-62
2021/05/23 03:58:38;;;;;;;17.80;6.25;;;7.00;92.40;;;;;;5049990;28;20060;-61
2021/05/23 04:01:04;;;;;;;14.55;5.68;;;5.50;92.10;;;;;;5050366;28;20120;-61
2021/05/23 04:03:29;;;;;;;14.07;5.32;;;6.40;92.30;;;;;;5053269;28;20746;-61
2021/05/23 04:05:57;;;;;;;13.43;5.68;;;5.40;92.20;;;;;;5056987;28;20101;-60
2021/05/23 04:08:24;;;;;;;14.30;5.75;;;;;;;;;;5054020;28;20033;-61
2021/05/23 04:11:06;;;;;;;12.35;5.78;;;6.30;92.40;;;;;;5046410;28;20077;-60
2021/05/23 04:13:34;;;;;;;12.38;5.38;;;7.00;92.60;;;;;;5065983;28;20117;-60
2021/05/23 04:16:00;;;;;;;12.88;5.15;;;6.80;92.40;;;;;;5051401;28;20562;-62
2021/05/23 04:18:26;;;;;;;12.07;5.07;;;6.40;92.40;;;;;;5056348;28;20066;-61
2021/05/23 04:20:52;;;;;;;14.82;5.93;;;7.00;92.40;;;;;;5060986;28;20469;-62
2021/05/23 04:23:20;;;;;;;10.23;5.00;;;;;;;;;;5050779;28;20033;-61
2021/05/23 04:25:45;;;;;;;11.45;5.45;;;6.80;92.40;;;;;;5058377;28;20112;-61
2021/05/23 04:28:12;;;;;;;10.98;5.30;;;6.80;92.00;;;;;;5050162;28;20139;-60
2021/05/23 04:30:38;;;;;;;12.52;5.85;;;6.10;92.20;;;;;;5049469;28;20052;-61
2021/05/23 04:33:04;;;;;;;11.98;5.80;;;6.90;92.40;;;;;;5049964;28;20113;-60
2021/05/23 04:35:30;;;;;;;13.30;5.13;;;6.10;92.30;;;;;;5052935;28;20037;-61
2021/05/23 04:38:00;;;;;;;14.73;5.22;;;6.90;92.20;;;;;;5050345;28;20513;-61
2021/05/23 04:40:27;;;;;;;12.45;5.80;;;7.10;92.30;;;;;;5052385;28;20138;-61
2021/05/23 04:42:53;;;;;;;12.13;5.70;;;;;;;;;;5048937;28;20454;-61
2021/05/23 04:45:19;;;;;;;13.10;5.50;;;7.20;92.20;;;;;;5049009;28;20486;-61
2021/05/23 04:47:45;;;;;;;11.15;5.20;;;7.30;92.30;;;;;;5056812;28;20058;-61
2021/05/23 04:50:12;;;;;;;16.30;5.50;;;7.70;92.50;;;;;;5061268;28;20126;-60
2021/05/23 04:52:38;;;;;;;15.88;5.70;;;7.30;92.30;;;;;;5058603;28;20037;-62
2021/05/23 04:55:05;;;;;;;15.85;5.20;;;6.10;92.00;;;;;;5048312;28;20039;-61
2021/05/23 04:57:31;;;;;;;17.00;5.60;;;7.50;92.40;;;;;;5047437;28;20482;-61
2021/05/23 04:59:57;;;;;;;11.05;5.05;;;;;;;;;;5049209;28;20045;-62
2021/05/23 05:02:23;;;;;;;11.52;5.05;;;6.60;92.10;;;;;;5047790;28;20126;-61
2021/05/23 05:04:49;;;;;;;11.98;5.00;;;7.60;92.30;;;;;;5057314;28;20157;-61
2021/05/23 05:07:15;;;;;;;11.88;4.88;;;7.50;92.20;;;;;;5035999;28;20033;-61
2021/05/23 05:09:41;;;;;;;9.85;5.00;;;;;;;;;;5058225;28;20280;-62
2021/05/23 05:12:08;;;;;;;13.82;4.88;;;7.40;91.80;;;;;;5048567;28;20047;-61
2021/05/23 05:14:34;;;;;;;12.35;4.55;;;6.70;91.60;;;;;;5044391;28;20060;-61
2021/05/23 05:17:00;;;;;;;12.07;4.72;;;8.60;91.90;;;;;;5050810;28;20032;-62
2021/05/23 05:19:26;;;;;;;13.50;5.18;;;7.40;91.60;;;;;;5038146;28;20125;-61
2021/05/23 05:21:52;;;;;;;12.05;4.95;;;7.30;91.50;;;;;;5049403;28;20124;-62
2021/05/23 05:24:18;;;;;;;10.57;5.93;;;7.70;91.60;;;;;;5036799;28;20115;-62
2021/05/23 05:26:44;;;;;;;13.23;5.30;;;7.80;91.60;;;;;;5049885;28;20103;-62
2021/05/23 05:29:10;;;;;;;13.65;5.18;;;8.00;91.70;;;;;;5050577;28;20059;-62
2021/05/23 05:31:36;;;;;;;11.57;4.68;;;7.70;91.80;;;;;;5050510;28;20059;-62
2021/05/23 05:34:02;;;;;;;10.40;4.57;;;8.20;91.60;;;;;;5053529;28;20062;-62
2021/05/23 05:36:28;;;;;;;16.10;4.82;;;7.90;91.20;;;;;;5048966;28;20354;-60
2021/05/23 05:38:54;;;;;;;13.23;5.30;;;8.40;90.80;;;;;;5046833;28;20144;-60
2021/05/23 05:41:21;;;;;;;12.02;5.20;;;8.00;90.10;;;;;;5047911;28;20138;-60
2021/05/23 05:43:48;;;;;;;10.82;5.35;;;8.40;90.70;;;;;;5048516;28;20073;-61
2021/05/23 05:46:14;;;;;;;11.88;5.32;;;8.70;90.80;;;;;;5049938;28;20099;-61
2021/05/23 05:48:40;;;;;;;10.75;5.25;;;8.70;90.50;;;;;;5047351;28;20457;-61
2021/05/23 05:51:07;;;;;;;16.65;5.95;;;8.80;90.50;;;;;;5048398;28;20070;-61
2021/05/23 05:53:33;;;;;;;13.85;4.97;;;8.70;90.20;;;;;;5044708;28;20063;-61
2021/05/23 05:56:00;;;;;;;13.48;5.00;;;8.90;90.00;;;;;;5048456;28;20053;-61
2021/05/23 05:58:26;;;;;;;14.23;6.25;;;9.00;90.10;;;;;;5045076;28;20066;-61
2021/05/23 06:00:52;;;;;;;12.68;5.72;;;9.00;89.50;;;;;;5048148;28;20064;-61
2021/05/23 06:03:18;;;;;;;13.50;5.75;;;9.20;89.10;;;;;;5048492;28;20435;-61
2021/05/23 06:05:43;;;;;;;10.82;5.50;;;9.40;89.60;;;;;;5045476;28;20081;-61
2021/05/23 06:08:10;;;;;;;12.50;5.65;;;;;;;;;;5049809;28;20601;-61
2021/05/23 06:10:37;;;;;;;11.63;5.43;;;9.10;88.50;;;;;;5051575;28;20845;-61
2021/05/23 06:13:04;;;;;;;14.90;5.50;;;9.80;88.00;;;;;;5054620;28;20081;-62
2021/05/23 06:15:30;;;;;;;12.38;5.65;;;8.70;86.50;;;;;;5050145;28;20085;-61
2021/05/23 06:17:56;;;;;;;11.10;5.13;;;9.50;86.70;;;;;;5049460;28;20095;-61
2021/05/23 06:20:22;;;;;;;14.18;6.00;;;8.30;85.50;;;;;;5052496;28;20463;-61
2021/05/23 06:22:48;;;;;;;13.68;5.07;;;9.70;86.40;;;;;;5057245;28;20069;-60
2021/05/23 06:25:14;;;;;;;13.35;6.10;;;9.60;85.80;;;;;;5047891;28;20184;-60
2021/05/23 06:27:40;;;;;;;7.97;5.07;;;11.30;88.00;;;;;;5045691;28;20096;-60
2021/05/23 06:30:07;;;;;;;8.65;5.30;;;9.90;87.00;;;;;;5052033;28;20490;-62
2021/05/23 06:32:34;;;;;;;8.80;5.55;;;10.00;87.30;;;;;;5044777;28;20077;-61
2021/05/23 06:35:00;;;;;;;8.35;5.10;;;10.20;86.10;;;;;;5053570;28;20098;-61
2021/05/23 06:37:26;;;;;;;12.60;5.43;;;10.20;86.20;;;;;;5055090;28;20100;-61
2021/05/23 06:39:52;;;;;;;16.88;5.75;;;11.20;84.80;;;;;;5058736;28;20101;-61
2021/05/23 06:42:18;;;;;;;14.05;5.50;;;10.20;84.30;;;;;;5053530;28;20106;-61
2021/05/23 06:44:45;;;;;;;12.30;5.78;;;10.60;84.80;;;;;;5048902;28;20095;-62
2021/05/23 06:47:11;;;;;;;11.18;5.60;;;9.50;83.70;;;;;;5062904;28;20550;-60
2021/05/23 06:49:37;;;;;;;17.17;6.13;;;10.70;84.30;;;;;;5055783;28;20091;-61
2021/05/23 06:52:04;;;;;;;20.40;5.97;;;10.60;84.20;;;;;;5047853;28;20119;-63
2021/05/23 06:54:30;;;;;;;13.63;5.47;;;10.60;82.30;;;;;;5052785;28;20453;-62
2021/05/23 06:56:55;;;;;;;15.82;5.63;;;10.70;82.70;;;;;;5052814;28;20089;-61
2021/05/23 06:59:23;;;;;;;11.63;4.82;;;9.30;79.80;;;;;;5054734;28;20609;-61
2021/05/23 07:01:50;;;;;;;6.35;4.32;;;11.00;81.10;;;;;;5047181;28;20101;-61
2021/05/23 07:04:16;;;;;;;6.63;3.78;;;11.00;79.80;;;;;;5059216;28;20547;-62
2021/05/23 07:06:42;;;;;;;9.93;5.22;;;11.20;80.00;;;;;;5050756;28;20108;-62
2021/05/23 07:09:08;;;;;;;9.73;3.67;;;9.80;78.20;;;;;;5058341;28;20156;-62
2021/05/23 07:11:34;;;;;;;10.65;5.13;;;12.70;79.10;;;;;;5052677;28;20791;-62
2021/05/23 07:14:00;;;;;;;9.98;4.28;;;11.40;78.60;;;;;;5048277;28;20096;-62
2021/05/23 07:16:26;;;;;;;9.65;4.40;;;11.50;75.40;;;;;;5048168;28;20167;-63
2021/05/23 07:18:52;;;;;;;11.57;5.72;;;11.20;76.10;;;;;;5052451;28;20129;-61
2021/05/23 07:21:18;;;;;;;9.70;4.82;;;11.70;75.50;;;;;;5053848;28;20089;-62
2021/05/23 07:23:44;;;;;;;7.45;4.32;;;11.50;75.50;;;;;;5044275;28;20172;-62
2021/05/23 07:26:10;;;;;;;10.85;4.82;;;13.00;75.30;;;;;;5051481;28;20184;-61
2021/05/23 07:28:36;;;;;;;13.32;4.60;;;13.10;74.20;;;;;;5046535;28;20559;-61
2021/05/23 07:31:03;;;;;;;8.40;4.50;;;14.40;69.80;;;;;;5044776;28;20094;-63
2021/05/23 07:33:29;;;;;;;10.85;4.82;;;13.70;69.70;;;;;;5053702;28;20113;-63
2021/05/23 07:35:55;;;;;;;10.80;4.03;;;13.80;66.30;;;;;;5037771;28;20091;-63
2021/05/23 07:38:21;;;;;;;7.82;3.70;;;13.70;65.00;;;;;;5043209;28;20098;-63
2021/05/23 07:40:47;;;;;;;10.00;4.72;;;14.30;64.30;;;;;;5042857;28;20704;-62
2021/05/23 07:43:13;;;;;;;8.77;4.80;;;13.60;65.10;;;;;;5051071;28;20120;-62
2021/05/23 07:45:39;;;;;;;8.88;5.05;;;11.80;66.00;;;;;;5072721;28;20430;-62
2021/05/23 07:48:06;;;;;;;11.77;4.80;;;13.30;67.30;;;;;;5046074;28;20055;-62
2021/05/23 07:50:32;;;;;;;11.82;5.40;;;13.20;67.70;;;;;;5049380;28;20132;-61
2021/05/23 07:53:00;;;;;;;10.57;5.40;;;13.30;67.90;;;;;;5060181;28;20053;-61
2021/05/23 07:55:26;;;;;;;13.80;7.97;;;13.10;67.80;;;;;;5046376;28;20069;-62
2021/05/23 07:57:52;;;;;;;9.35;5.20;;;13.30;67.80;;;;;;5071638;28;20072;-64
2021/05/23 08:00:18;;;;;;;13.55;4.82;;;12.80;67.90;;;;;;5052019;28;20064;-61
2021/05/23 08:02:44;;;;;;;8.30;4.70;;;13.00;65.90;;;;;;5036895;28;20475;-62
2021/05/23 08:05:10;;;;;;;11.15;5.05;;;13.00;66.70;;;;;;5037294;28;20545;-63
2021/05/23 08:07:36;;;;;;;13.27;5.53;;;13.10;66.00;;;;;;5052163;28;20048;-62
2021/05/23 08:10:05;;;;;;;9.88;5.53;;;13.10;68.10;;;;;;5051746;28;20171;-62
2021/05/23 08:12:32;;;;;;;13.30;6.82;;;13.00;68.40;;;;;;5048097;28;20395;-60
2021/05/23 08:15:00;;;;;;;11.30;6.00;;;13.00;67.70;;;;;;5054726;28;20053;-61
2021/05/23 08:17:26;;;;;;;12.55;6.75;;;12.80;68.70;;;;;;5037538;28;20443;-61
2021/05/23 08:19:52;;;;;;;15.35;7.78;;;13.20;69.50;;;;;;5049807;28;20035;-61
2021/05/23 08:22:18;;;;;;;10.27;6.05;;;13.00;68.80;;;;;;5041756;28;20116;-60
2021/05/23 08:24:45;;;;;;;15.15;6.00;;;12.90;67.80;;;;;;5057270;28;20486;-62
2021/05/23 08:27:10;;;;;;;10.30;7.03;;;13.40;69.10;;;;;;5036142;28;20041;-61
2021/05/23 08:29:36;;;;;;;11.82;5.65;;;12.90;69.30;;;;;;5046378;28;20113;-62
2021/05/23 08:32:03;;;;;;;8.23;5.90;;;13.00;65.90;;;;;;5039390;28;20576;-62
2021/05/23 08:34:28;;;;;;;10.85;6.40;;;13.00;66.00;;;;;;5054452;28;20079;-63
2021/05/23 08:36:54;;;;;;;12.20;7.10;;;13.40;67.40;;;;;;5053115;28;20045;-63
2021/05/23 08:39:20;;;;;;;12.43;7.55;;;13.00;67.60;;;;;;5056874;28;20033;-63
2021/05/23 08:41:47;;;;;;;11.45;6.95;;;12.30;69.10;;;;;;5058489;28;20037;-63
2021/05/23 08:44:20;;;;;;;14.65;6.95;;;12.70;68.20;;;;;;5055749;28;20413;-63
2021/05/23 08:46:49;;;;;;;13.85;7.18;;;12.70;68.90;;;;;;5052089;28;20041;-63
2021/05/23 08:49:22;;;;;;;10.60;7.37;;;12.80;69.40;;;;;;5050180;28;20037;-63
2021/05/23 08:51:49;;;;;;;15.80;7.40;;;11.40;69.30;;;;;;5032543;28;20469;-62
2021/05/23 08:54:16;;;;;;;13.88;7.63;;;13.10;71.20;;;;;;5059215;28;20066;-63
2021/05/23 08:56:43;;;;;;;12.63;7.70;;;13.00;73.00;;;;;;5060377;28;20114;-65
2021/05/23 08:59:10;;;;;;;11.05;7.60;;;13.10;72.50;;;;;;5049302;28;20131;-63
2021/05/23 09:01:38;;;;;;;11.27;7.18;;;13.30;71.50;;;;;;5046831;28;20516;-62
2021/05/23 09:04:05;;;;;;;13.23;7.22;;;13.10;71.90;;;;;;5049962;28;20458;-63
2021/05/23 09:06:34;;;;;;;15.75;8.82;;;14.60;72.30;;;;;;5061582;28;20040;-63
2021/05/23 09:09:11;;;;;;;11.27;8.10;;;13.10;71.40;;;;;;5049741;28;20073;-63
2021/05/23 09:11:39;;;;;;;15.13;7.70;;;13.10;72.50;;;;;;5060953;28;20074;-63
2021/05/23 09:14:05;;;;;;;12.40;6.78;;;13.00;72.70;;;;;;5049543;28;20103;-63
2021/05/23 09:16:39;;;;;;;11.82;8.13;;;13.00;73.00;;;;;;5055087;28;20158;-63
2021/05/23 09:19:06;;;;;;;11.50;6.97;;;13.30;73.40;;;;;;5050335;28;20608;-63
2021/05/23 09:21:38;;;;;;;12.23;7.15;;;13.30;73.30;;;;;;5049051;28;20100;-61
2021/05/23 09:24:11;;;;;;;9.95;7.13;;;13.60;71.70;;;;;;5048290;28;20557;-63
2021/05/23 09:26:50;;;;;;;9.07;6.75;;;13.60;71.80;;;;;;5064793;28;20096;-63
2021/05/23 09:29:20;;;;;;;8.55;5.55;;;13.70;69.50;;;;;;5047890;28;20161;-63
2021/05/23 09:31:55;;;;;;;9.68;5.65;;;13.80;70.90;;;;;;5048538;28;20100;-63
2021/05/23 09:34:23;;;;;;;8.10;6.15;;;13.70;69.70;;;;;;5057334;28;20047;-63
2021/05/23 09:36:49;;;;;;;10.25;6.53;;;12.60;70.20;;;;;;5059028;28;20033;-63
2021/05/23 09:39:16;;;;;;;8.98;6.28;;;13.40;70.90;;;;;;5047554;28;20056;-62
2021/05/23 09:41:42;;;;;;;14.45;7.88;;;13.50;71.60;;;;;;5050101;28;20078;-62
2021/05/23 09:44:20;;;;;;;12.75;8.52;;;14.00;73.30;;;;;;5054735;28;20695;-62
2021/05/23 09:46:55;;;;;;;14.35;9.13;;;12.00;71.70;;;;;;5037640;28;20091;-64
2021/05/23 09:49:22;;;;;;;11.65;8.80;;;13.20;72.80;;;;;;5055415;28;20123;-63
2021/05/23 09:51:55;;;;;;;14.40;9.80;;;15.00;75.30;;;;;;5046147;28;20825;-63
2021/05/23 09:54:23;;;;;;;16.05;9.82;;;13.20;74.40;;;;;;5043431;28;20045;-61
2021/05/23 09:56:49;;;;;;;15.07;9.55;;;13.00;75.00;;;;;;5046273;28;20037;-63
2021/05/23 09:59:26;;;;;;;16.10;9.82;;;13.00;75.80;;;;;;5045330;28;20119;-63
2021/05/23 10:02:03;;;;;;;12.85;8.68;;;13.30;77.40;;;;;;5047870;28;20043;-63
2021/05/23 10:04:29;;;;;;;10.00;7.05;;;13.00;77.50;;;;;;5054844;28;20041;-63
2021/05/23 10:07:00;;;;;;;8.23;5.85;;;12.60;78.60;;;;;;5048702;28;20044;-62
2021/05/23 10:09:27;;;;;;;7.75;5.07;;;12.70;80.10;;;;;;5051149;28;20049;-62
2021/05/23 10:11:54;;;;;;;8.23;4.95;;;11.60;78.70;;;;;;5052022;28;20129;-63
2021/05/23 10:14:20;;;;;;;7.57;5.80;;;12.60;79.90;;;;;;5052723;28;20041;-63
2021/05/23 10:16:51;;;;;;;8.68;5.95;;;12.40;82.00;;;;;;5050829;28;20151;-63
2021/05/23 10:19:20;;;;;;;10.60;8.00;;;13.80;81.30;;;;;;5047638;28;20134;-64
2021/05/23 10:21:47;;;;;;;11.40;8.13;;;13.00;80.40;;;;;;5055035;28;20451;-63
2021/05/23 10:24:19;;;;;;;11.43;7.85;;;12.70;79.50;;;;;;5052095;28;20168;-63
2021/05/23 10:26:47;;;;;;;11.65;6.68;;;13.20;78.90;;;;;;5053203;28;20101;-64
2021/05/23 10:29:13;;;;;;;9.63;6.53;;;13.40;78.20;;;;;;5066461;28;20547;-64
2021/05/23 10:31:39;;;;;;;12.52;7.55;;;13.70;78.30;;;;;;5055930;28;20603;-63
2021/05/23 10:34:05;;;;;;;10.88;8.00;;;14.10;75.70;;;;;;5052347;28;20089;-63
2021/05/23 10:36:33;;;;;;;10.85;7.70;;;14.10;75.70;;;;;;5051649;28;20143;-63
2021/05/23 10:39:03;;;;;;;10.93;7.22;;;14.10;73.50;;;;;;5053542;28;20094;-63
2021/05/23 10:41:29;;;;;;;10.30;7.70;;;14.10;73.60;;;;;;5051262;28;20446;-63
2021/05/23 10:44:05;;;;;;;9.93;6.80;;;13.90;73.60;;;;;;5050786;28;20103;-63
2021/05/23 10:46:42;;;;;;;9.95;6.80;;;13.80;74.20;;;;;;5038939;28;20095;-63
2021/05/23 10:49:07;;;;;;;10.65;8.15;;;13.80;75.10;;;;;;5058387;28;20621;-63
2021/05/23 10:51:33;;;;;;;8.68;6.60;;;13.70;73.20;;;;;;5051921;28;20139;-63
2021/05/23 10:53:59;;;;;;;7.82;5.72;;;14.00;73.60;;;;;;5059048;28;20124;-63
2021/05/23 10:56:30;;;;;;;8.70;6.70;;;14.70;74.00;;;;;;5050646;28;20100;-63
2021/05/23 10:59:00;;;;;;;7.75;5.63;;;13.60;72.50;;;;;;5044950;28;20564;-63
2021/05/23 11:01:44;;;;;;;6.72;5.53;;;14.40;72.60;;;;;;5048553;28;20092;-63
2021/05/23 11:04:17;;;;;;;2.40;1.80;;;13.90;63.50;;;;;;5057169;28;20105;-62
2021/05/23 11:06:45;;;;;;;2.40;1.90;;;13.50;65.80;;;;;;5048975;28;20052;-62
2021/05/23 11:09:23;;;;;;;2.03;1.73;;;13.40;67.10;;;;;;5051443;28;20069;-62
2021/05/23 11:11:49;;;;;;;2.50;1.70;;;12.70;74.20;;;;;;5078210;28;20037;-62
2021/05/23 11:14:25;;;;;;;2.15;1.70;;;12.60;75.00;;;;;;5051981;28;20041;-62
2021/05/23 11:16:55;;;;;;;2.50;2.10;;;12.20;77.00;;;;;;5050861;28;20055;-62
2021/05/23 11:19:23;;;;;;;2.90;2.10;;;11.90;77.30;;;;;;5053081;28;20063;-63
2021/05/23 11:21:53;;;;;;;4.10;2.10;;;11.90;78.00;;;;;;5054030;28;20088;-62
2021/05/23 11:24:26;;;;;;;3.00;2.30;;;12.90;78.50;;;;;;5050399;28;20092;-63
2021/05/23 11:26:52;;;;;;;3.05;2.08;;;12.10;76.60;;;;;;5054923;28;20111;-64
2021/05/23 11:29:19;;;;;;;2.47;1.73;;;12.70;75.60;;;;;;5051428;28;20089;-62
2021/05/23 11:31:48;;;;;;;2.10;1.70;;;12.50;75.10;;;;;;5048105;28;20180;-63
2021/05/23 11:34:17;;;;;;;4.10;2.10;;;12.80;75.40;;;;;;5052111;28;20089;-63
2021/05/23 11:36:43;;;;;;;2.50;1.90;;;13.10;72.00;;;;;;5050130;28;20100;-65
2021/05/23 11:39:12;;;;;;;2.28;1.92;;;13.30;71.80;;;;;;5058256;28;20032;-63
2021/05/23 11:41:49;;;;;;;3.55;2.30;;;14.00;71.50;;;;;;5053412;28;20093;-63
2021/05/23 11:44:17;;;;;;;2.60;2.00;;;13.40;69.00;;;;;;5050463;28;20047;-63
2021/05/23 11:46:45;;;;;;;2.85;2.10;;;13.90;69.10;;;;;;5050187;28;20140;-63
2021/05/23 11:49:21;;;;;;;4.93;2.17;;;13.40;69.00;;;;;;5049065;28;20060;-63
2021/05/23 11:51:47;;;;;;;3.50;2.10;;;13.40;68.40;;;;;;5047915;28;20066;-63
2021/05/23 11:54:14;;;;;;;3.72;2.50;;;12.90;72.30;;;;;;5051136;28;20116;-63
2021/05/23 11:56:41;;;;;;;3.28;2.60;;;13.20;75.40;;;;;;5050649;28;20395;-63
2021/05/23 11:59:08;;;;;;;5.18;2.75;;;12.50;77.90;;;;;;5050798;28;20071;-63
2021/05/23 12:01:35;;;;;;;5.25;2.65;;;13.20;78.00;;;;;;5054350;28;20481;-63
2021/05/23 12:04:08;;;;;;;3.28;2.53;;;12.00;79.00;;;;;;5050813;28;20069;-63
2021/05/23 12:06:36;;;;;;;3.30;2.60;;;11.80;80.90;;;;;;5058932;28;20152;-62
2021/05/23 12:09:37;;;;;;;4.15;3.20;;;11.70;80.60;;;;;;5049972;28;20029;-62
2021/05/23 12:12:06;;;;;;;3.70;3.00;;;13.00;82.10;;;;;;5052706;28;20045;-62
2021/05/23 12:14:41;;;;;;;4.78;3.10;;;11.60;81.00;;;;;;4348177;28;10000701;-62
2021/05/23 12:17:09;;;;;;;3.20;2.60;;;11.80;81.10;;;;;;5043188;28;20152;-61
2021/05/23 12:19:49;;;;;;;3.72;2.60;;;14.00;80.80;;;;;;5053329;28;20549;-61
2021/05/23 12:22:24;;;;;;;3.00;2.20;;;12.40;78.90;;;;;;5050458;28;20163;-61
2021/05/23 12:24:53;;;;;;;4.25;2.40;;;12.70;75.20;;;;;;5050431;28;20052;-62
2021/05/23 12:27:27;;;;;;;2.40;2.10;;;12.80;74.30;;;;;;5042310;28;20403;-61
2021/05/23 12:29:53;;;;;;;3.95;2.25;;;12.30;73.70;;;;;;5041566;28;20494;-61
2021/05/23 12:32:21;;;;;;;2.92;2.20;;;13.20;73.70;;;;;;5047355;28;20653;-62
2021/05/23 12:34:46;;;;;;;2.75;2.10;;;12.40;73.60;;;;;;5042137;28;20040;-62
2021/05/23 12:37:15;;;;;;;3.67;2.30;;;12.70;72.50;;;;;;5042673;28;20805;-62
2021/05/23 12:39:41;;;;;;;2.72;2.00;;;13.00;75.40;;;;;;5026443;28;20036;-62
2021/05/23 12:42:07;;;;;;;3.60;2.22;;;12.60;75.10;;;;;;5080722;28;20482;-63
2021/05/23 12:44:33;;;;;;;3.33;2.53;;;13.00;73.70;;;;;;5047500;28;20098;-62
2021/05/23 12:47:17;;;;;;;3.63;2.58;;;12.70;75.10;;;;;;5071870;28;20129;-62
2021/05/23 12:49:46;;;;;;;3.42;2.78;;;12.90;74.70;;;;;;5038511;28;20118;-63
2021/05/23 12:52:13;;;;;;;3.33;2.40;;;12.90;75.30;;;;;;5042955;28;20081;-63
2021/05/23 12:54:42;;;;;;;3.47;2.63;;;12.60;72.70;;;;;;5042241;28;20085;-64